Time;durP1;ratioP1;P1;durP2;ratioP2;P2;SDS_P1;SDS_P2;PMS_P1;PMS_P2;Temp;Humidity;BMP_temperature;BMP_pressure;BME280_temperature;BME280_humidity;BME280_pressure;Samples;Min_cycle;Max_cycle;Signal;HPM_P1;HPM_P2
2021/06/12 00:01:52;;;;;;;12.83;11.57;;;13.70;99.90;;;14.59;55.10;94590.19;5086195;28;20187;-74
2021/06/12 00:04:18;;;;;;;13.17;11.97;;;13.60;99.90;;;14.52;55.69;94587.00;5084835;28;20522;-73
2021/06/12 00:06:44;;;;;;;11.80;10.80;;;13.80;99.90;;;14.44;55.45;94582.22;5086903;28;20201;-73
2021/06/12 00:09:12;;;;;;;13.03;11.80;;;13.60;99.90;;;14.37;55.90;94577.16;5086317;28;20222;-73
2021/06/12 00:11:39;;;;;;;13.17;11.97;;;13.40;99.90;;;14.31;55.88;94572.09;5069535;28;21086;-73
2021/06/12 00:14:07;;;;;;;12.60;11.50;;;13.50;99.90;;;14.27;56.04;94574.50;5070280;28;20222;-73
2021/06/12 00:16:33;;;;;;;11.90;10.90;;;13.30;99.90;;;14.29;55.98;94579.56;5083422;28;20194;-73
2021/06/12 00:19:02;;;;;;;12.87;11.67;;;13.30;99.90;;;14.26;55.96;94575.59;5068534;28;20201;-74
2021/06/12 00:21:28;;;;;;;12.57;11.37;;;13.20;99.90;;;14.24;56.35;94575.03;5068987;28;20563;-75
2021/06/12 00:23:55;;;;;;;12.30;11.20;;;13.20;99.90;;;14.23;56.11;94575.31;5053129;28;20936;-75
2021/06/12 00:26:23;;;;;;;12.33;11.23;;;13.20;99.90;;;14.23;56.34;94578.78;5069060;28;20205;-74
2021/06/12 00:28:49;;;;;;;11.43;10.33;;;13.20;99.90;;;14.18;56.60;94581.44;5085598;28;20218;-75
2021/06/12 00:31:15;;;;;;;12.03;11.03;;;13.20;99.90;;;14.20;56.30;94578.53;5049755;28;20282;-75
2021/06/12 00:33:41;;;;;;;11.87;10.63;;;13.20;99.90;;;14.15;56.49;94573.19;5086594;28;20183;-74
2021/06/12 00:36:07;;;;;;;12.03;10.83;;;13.20;99.90;;;14.15;57.01;94574.00;5085531;28;21768;-74
2021/06/12 00:38:36;;;;;;;12.90;11.70;;;13.20;99.90;;;14.07;57.01;94569.19;5098187;28;20198;-75
2021/06/12 00:41:02;;;;;;;11.40;10.30;;;13.10;99.90;;;14.03;57.07;94576.16;5086333;28;21163;-75
2021/06/12 00:43:28;;;;;;;12.20;10.97;;;13.10;99.90;;;14.05;57.03;94573.22;5068198;28;20189;-75
2021/06/12 00:45:56;;;;;;;12.57;11.13;;;13.00;99.90;;;14.02;57.03;94576.41;5068386;28;20206;-75
2021/06/12 00:48:27;;;;;;;12.13;10.93;;;13.00;99.90;;;13.99;57.23;94583.09;5087088;28;20194;-73
2021/06/12 00:50:56;;;;;;;12.73;11.43;;;12.90;99.90;;;13.98;57.17;94575.34;5085000;28;20227;-75
2021/06/12 00:53:37;;;;;;;11.83;10.70;;;13.00;99.90;;;13.92;57.67;94571.91;5084762;28;20198;-75
2021/06/12 00:56:15;;;;;;;11.83;10.70;;;12.90;99.90;;;13.89;57.31;94585.75;5087292;28;20560;-73
2021/06/12 00:58:42;;;;;;;12.17;11.07;;;12.80;99.90;;;13.87;57.86;94572.69;5079526;28;20198;-75
2021/06/12 01:01:13;;;;;;;11.97;10.77;;;12.80;99.90;;;13.87;57.50;94572.69;5066444;28;20858;-74
2021/06/12 01:03:40;;;;;;;11.53;10.43;;;12.80;99.90;;;13.77;57.60;94566.56;5083823;28;20790;-74
2021/06/12 01:06:13;;;;;;;11.07;10.07;;;12.80;99.90;;;13.78;57.83;94579.63;5086029;28;20681;-75
2021/06/12 01:08:41;;;;;;;12.73;10.87;;;12.80;99.90;;;13.79;57.69;94572.44;5083781;28;20544;-74
2021/06/12 01:11:11;;;;;;;12.30;11.17;;;12.70;99.90;;;13.80;58.19;94566.84;5087017;28;21042;-75
2021/06/12 01:14:09;;;;;;;11.83;10.83;;;12.70;99.90;;;13.78;58.04;94566.31;5068752;28;20682;-75
2021/06/12 01:16:51;;;;;;;11.87;10.73;;;12.70;99.90;;;13.73;58.03;94558.31;5067082;28;20190;-74
2021/06/12 01:19:38;;;;;;;12.23;11.13;;;12.70;99.90;;;13.66;58.13;94560.47;5064092;28;20194;-75
2021/06/12 01:22:16;;;;;;;11.77;10.57;;;12.60;99.90;;;13.65;58.01;94550.88;5080830;28;20673;-74
2021/06/12 01:25:08;;;;;;;11.83;10.77;;;12.60;99.90;;;13.60;58.23;94553.53;5068573;28;20557;-74
2021/06/12 01:28:11;;;;;;;11.20;10.13;;;12.60;99.90;;;13.58;58.39;94555.66;5081731;28;20566;-74
2021/06/12 01:30:43;;;;;;;11.20;10.20;;;12.60;99.90;;;13.58;58.92;94552.19;5066266;28;20220;-74
2021/06/12 01:33:12;;;;;;;11.20;10.20;;;12.60;99.90;;;13.51;58.88;94547.13;5069293;28;20182;-75
2021/06/12 01:35:56;;;;;;;10.93;9.93;;;12.50;99.90;;;13.52;58.36;94547.94;5066544;28;20268;-73
2021/06/12 01:38:31;;;;;;;13.13;10.70;;;12.50;99.90;;;13.43;58.73;94549.53;5083633;28;20182;-73
2021/06/12 01:41:02;;;;;;;14.13;11.87;;;12.50;99.90;;;13.40;59.02;94544.75;5080908;28;20230;-75
2021/06/12 01:43:31;;;;;;;12.23;10.80;;;12.40;99.90;;;13.36;59.39;94539.16;5084342;28;20206;-75
2021/06/12 01:46:01;;;;;;;11.93;10.83;;;12.40;99.90;;;13.40;59.07;94553.53;5084575;28;20196;-74
2021/06/12 01:48:32;;;;;;;12.77;11.47;;;12.40;99.90;;;13.34;59.50;94560.72;5084221;28;20273;-73
2021/06/12 01:51:05;;;;;;;12.60;11.40;;;12.40;99.90;;;13.30;59.40;94554.31;5083874;28;20310;-75
2021/06/12 01:53:32;;;;;;;12.53;11.33;;;12.30;99.90;;;13.29;59.46;94563.38;5080111;28;20329;-75
2021/06/12 01:56:07;;;;;;;13.77;12.50;;;12.30;99.90;;;13.27;59.76;94557.50;5083173;28;20201;-75
2021/06/12 01:58:37;;;;;;;14.43;13.03;;;12.30;99.90;;;13.24;59.84;94563.38;5069347;28;20178;-74
2021/06/12 02:01:10;;;;;;;13.87;12.47;;;12.20;99.90;;;13.22;60.13;94568.16;5084963;28;20190;-75
2021/06/12 02:03:42;;;;;;;13.03;11.73;;;12.10;99.90;;;13.22;59.68;94562.84;5085182;28;20278;-73
2021/06/12 02:06:16;;;;;;;12.43;11.13;;;12.20;99.90;;;13.21;60.33;94566.56;5068724;28;20229;-75
2021/06/12 02:08:45;;;;;;;13.17;12.03;;;12.20;99.90;;;13.21;60.37;94577.19;5084161;28;20203;-74
2021/06/12 02:11:17;;;;;;;13.13;11.93;;;12.20;99.90;;;13.16;60.03;94571.09;5067417;28;20221;-75
2021/06/12 02:13:45;;;;;;;15.97;12.03;;;12.20;99.90;;;13.14;60.55;94571.34;5081135;28;20183;-74
2021/06/12 02:16:13;;;;;;;12.80;11.70;;;12.00;99.90;;;13.15;60.28;94566.81;5066461;28;20237;-75
2021/06/12 02:18:45;;;;;;;12.57;11.37;;;12.20;99.90;;;13.15;60.80;94574.78;5085892;28;20197;-75
2021/06/12 02:21:19;;;;;;;12.30;11.23;;;12.20;99.90;;;13.09;60.56;94579.31;5083558;28;20215;-74
2021/06/12 02:23:51;;;;;;;13.13;12.03;;;12.20;99.90;;;13.08;60.67;94574.22;5086236;28;20200;-74
2021/06/12 02:26:25;;;;;;;12.67;11.47;;;12.10;99.90;;;13.09;60.50;94568.69;5080940;28;20673;-74
2021/06/12 02:28:55;;;;;;;14.50;13.13;;;12.10;99.90;;;13.04;60.54;94570.47;5084010;28;20190;-73
2021/06/12 02:31:31;;;;;;;13.37;11.97;;;12.00;99.90;;;13.03;60.62;94577.66;5070389;28;20197;-74
2021/06/12 02:34:00;;;;;;;12.80;11.60;;;12.00;99.90;;;13.07;60.82;94581.41;5072311;28;20684;-74
2021/06/12 02:36:26;;;;;;;12.53;11.33;;;12.00;99.90;;;13.03;61.28;94574.19;5088259;28;20285;-75
2021/06/12 02:38:54;;;;;;;11.67;10.63;;;12.00;99.90;;;13.02;61.08;94581.41;5070490;28;20819;-74
2021/06/12 02:41:23;;;;;;;14.03;12.73;;;12.30;99.90;;;12.99;60.79;94575.81;5086727;28;20182;-73
2021/06/12 02:43:49;;;;;;;14.30;13.00;;;12.00;99.90;;;12.97;61.39;94572.59;5070743;28;20190;-74
2021/06/12 02:46:22;;;;;;;13.97;12.67;;;11.90;99.90;;;12.97;61.44;94580.56;5091785;28;20201;-74
2021/06/12 02:48:56;;;;;;;13.27;11.97;;;11.90;99.90;;;12.89;61.35;94591.72;5087128;28;20241;-73
2021/06/12 02:51:26;;;;;;;13.47;12.03;;;11.80;99.90;;;12.89;61.26;94579.22;5070665;28;20244;-74
2021/06/12 02:53:56;;;;;;;14.13;12.73;;;11.80;99.90;;;12.92;61.37;94581.38;5070269;28;20214;-75
2021/06/12 02:56:24;;;;;;;14.03;12.37;;;11.90;99.90;;;12.90;61.54;94588.78;5089393;28;20182;-74
2021/06/12 02:58:52;;;;;;;13.67;12.37;;;11.80;99.90;;;12.84;61.86;94587.19;5071718;28;20197;-75
2021/06/12 03:01:23;;;;;;;13.00;11.77;;;11.80;99.90;;;12.83;61.65;94589.03;5061780;28;20205;-74
2021/06/12 03:03:52;;;;;;;12.37;11.13;;;11.80;99.90;;;12.83;61.65;94594.34;5064678;28;20197;-74
2021/06/12 03:06:20;;;;;;;12.50;11.40;;;11.80;99.90;;;12.76;61.73;94588.47;5088751;28;20201;-75
2021/06/12 03:08:50;;;;;;;11.93;10.73;;;11.80;99.90;;;12.73;61.99;94591.66;5067849;28;20214;-74
2021/06/12 03:11:16;;;;;;;11.97;10.60;;;11.80;99.90;;;12.67;62.03;94586.59;5070339;28;20214;-73
2021/06/12 03:13:45;;;;;;;12.23;11.17;;;11.80;99.90;;;12.69;61.99;94587.91;5070731;28;20471;-75
2021/06/12 03:16:16;;;;;;;11.63;10.53;;;11.70;99.90;;;12.67;61.90;94590.06;5064815;28;20821;-75
2021/06/12 03:18:47;;;;;;;12.27;11.17;;;11.80;99.90;;;12.70;62.35;94588.72;5086464;28;20191;-73
2021/06/12 03:21:18;;;;;;;11.30;10.23;;;11.80;99.90;;;12.70;62.20;94583.41;5086513;28;20945;-75
2021/06/12 03:23:49;;;;;;;11.53;10.43;;;11.70;99.90;;;12.72;62.20;94583.97;5084237;28;20201;-75
2021/06/12 03:26:17;;;;;;;10.40;9.50;;;11.70;99.90;;;12.74;62.09;94595.13;5088982;28;20210;-76
2021/06/12 03:28:43;;;;;;;11.40;10.30;;;11.80;99.90;;;12.76;62.58;94595.66;5086310;28;20186;-74
2021/06/12 03:31:14;;;;;;;11.60;10.60;;;11.70;99.90;;;12.76;62.47;94587.69;5087491;28;20237;-74
2021/06/12 03:33:41;;;;;;;11.63;10.37;;;11.70;99.90;;;12.73;62.71;94589.00;5088127;28;20198;-75
2021/06/12 03:36:09;;;;;;;12.37;11.20;;;11.70;99.90;;;12.79;62.63;94592.50;5087749;28;20212;-74
2021/06/12 03:38:35;;;;;;;11.63;10.63;;;11.80;99.90;;;12.85;62.67;94600.25;5083168;28;20330;-75
2021/06/12 03:41:04;;;;;;;11.87;10.87;;;11.80;99.90;;;12.78;63.00;94583.72;5066965;28;20632;-74
2021/06/12 03:43:30;;;;;;;12.33;11.23;;;11.80;99.90;;;12.75;63.12;94588.75;5087049;28;20196;-74
2021/06/12 03:45:58;;;;;;;11.37;10.20;;;11.80;99.90;;;12.84;63.22;94582.66;5087082;28;20201;-75
2021/06/12 03:48:25;;;;;;;11.50;10.40;;;11.90;99.90;;;12.81;63.37;94579.72;5090108;28;20207;-73
2021/06/12 03:50:55;;;;;;;10.70;9.70;;;11.90;99.90;;;12.84;63.08;94589.84;5083397;28;20263;-74
2021/06/12 03:53:29;;;;;;;10.70;9.77;;;11.90;99.90;;;12.87;63.28;94586.66;5069614;28;20215;-74
2021/06/12 03:55:59;;;;;;;12.13;10.13;;;12.00;99.90;;;12.92;63.08;94581.38;5069361;28;20544;-75
2021/06/12 03:58:25;;;;;;;10.53;9.53;;;12.00;99.90;;;13.04;63.22;94587.25;5086390;28;20193;-73
2021/06/12 04:00:55;;;;;;;10.20;9.30;;;12.00;99.90;;;13.09;63.02;94583.84;5066189;28;20201;-75
2021/06/12 04:03:20;;;;;;;11.63;10.27;;;12.10;99.90;;;13.14;63.73;94586.50;5086163;28;20205;-74
2021/06/12 04:05:50;;;;;;;10.37;9.30;;;12.10;99.90;;;13.22;63.24;94593.97;5083854;28;20776;-74
2021/06/12 04:08:21;;;;;;;9.63;8.67;;;12.20;99.90;;;13.25;63.64;94591.59;5087746;28;20199;-74
2021/06/12 04:10:47;;;;;;;10.23;9.30;;;12.20;99.90;;;13.30;63.52;94591.59;5084701;28;20217;-72
2021/06/12 04:13:16;;;;;;;10.40;9.50;;;12.30;99.90;;;13.37;63.30;94588.66;5050706;28;20241;-74
2021/06/12 04:15:42;;;;;;;11.57;9.37;;;12.40;99.90;;;13.45;63.36;94587.34;5085974;28;20715;-74
2021/06/12 04:18:15;;;;;;;9.77;8.93;;;12.20;99.90;;;13.48;63.87;94587.63;5069469;28;20198;-73
2021/06/12 04:20:41;;;;;;;11.03;9.73;;;12.50;99.90;;;13.47;63.97;94585.22;5080632;28;20209;-75
2021/06/12 04:23:08;;;;;;;10.67;9.67;;;12.60;99.90;;;13.54;63.89;94578.56;5085867;28;20260;-75
2021/06/12 04:25:34;;;;;;;11.20;10.30;;;12.60;99.90;;;13.57;64.14;94579.88;5084496;28;20187;-73
2021/06/12 04:28:00;;;;;;;11.37;9.93;;;12.60;99.90;;;13.63;64.06;94592.16;5069292;28;20668;-76
2021/06/12 04:30:26;;;;;;;9.87;9.07;;;12.70;99.90;;;13.72;64.19;94595.88;5067819;28;20233;-74
2021/06/12 04:32:52;;;;;;;10.73;9.70;;;12.70;99.90;;;13.76;63.96;94587.09;5085212;28;20210;-75
2021/06/12 04:35:18;;;;;;;10.43;9.33;;;12.80;99.90;;;13.83;64.13;94594.84;5053115;28;20202;-75
2021/06/12 04:37:45;;;;;;;10.50;9.60;;;12.80;99.90;;;13.95;64.03;94603.34;5084086;28;20190;-74
2021/06/12 04:40:13;;;;;;;10.57;9.57;;;13.00;99.90;;;14.07;63.96;94611.06;5084372;28;20199;-75
2021/06/12 04:42:41;;;;;;;10.40;9.50;;;13.00;99.90;;;14.22;64.63;94617.19;5086120;28;20589;-74
2021/06/12 04:45:09;;;;;;;10.27;9.37;;;13.20;99.90;;;14.32;64.65;94614.50;5089832;28;20193;-74
2021/06/12 04:47:36;;;;;;;10.63;9.50;;;13.30;99.90;;;14.56;64.56;94621.94;5067244;28;20293;-74
2021/06/12 04:50:06;;;;;;;10.27;9.27;;;13.60;99.90;;;14.73;64.71;94625.91;5062664;28;20631;-75
2021/06/12 04:52:32;;;;;;;9.63;8.73;;;13.70;99.90;;;14.80;64.63;94614.94;5066761;28;20183;-72
2021/06/12 04:55:02;;;;;;;9.37;8.57;;;13.90;99.90;;;14.83;64.47;94619.72;5086180;28;20187;-73
2021/06/12 04:57:28;;;;;;;10.03;8.80;;;13.90;99.90;;;14.95;64.37;94622.06;5086582;28;20187;-72
2021/06/12 04:59:56;;;;;;;9.60;8.77;;;14.00;99.90;;;15.18;64.53;94616.06;5068401;28;20205;-71
2021/06/12 05:02:22;;;;;;;9.67;8.83;;;14.20;99.90;;;15.29;64.79;94613.09;5086585;28;20223;-72
2021/06/12 05:04:48;;;;;;;9.57;8.60;;;14.30;99.90;;;15.44;64.51;94611.41;5082232;28;20291;-72
2021/06/12 05:07:14;;;;;;;9.33;8.53;;;14.40;99.90;;;15.50;64.54;94602.31;5092479;28;20733;-71
2021/06/12 05:09:43;;;;;;;9.53;8.60;;;14.60;99.90;;;15.71;64.77;94609.13;5082779;28;20584;-72
2021/06/12 05:12:12;;;;;;;9.40;8.60;;;14.70;99.90;;;15.78;64.84;94613.06;5086135;28;20197;-73
2021/06/12 05:14:42;;;;;;;8.87;8.07;;;14.80;99.90;;;15.89;64.60;94621.78;5084007;28;20186;-73
2021/06/12 05:17:11;;;;;;;9.40;8.60;;;14.90;99.90;;;15.97;64.51;94626.56;5084717;28;20210;-73
2021/06/12 05:19:39;;;;;;;9.73;8.77;;;15.00;99.90;;;16.10;64.66;94633.94;5084700;28;20190;-73
2021/06/12 05:22:06;;;;;;;8.57;7.77;;;15.10;99.90;;;16.35;64.78;94636.38;5085774;28;20207;-74
2021/06/12 05:24:36;;;;;;;8.83;8.07;;;15.30;99.90;;;16.50;64.66;94642.66;5069633;28;20267;-74
2021/06/12 05:27:06;;;;;;;9.17;8.33;;;15.40;99.90;;;16.84;64.57;94644.22;5082158;28;20201;-72
2021/06/12 05:29:32;;;;;;;9.43;8.40;;;15.70;99.90;;;17.32;64.61;94652.22;5065541;28;20206;-73
2021/06/12 05:31:58;;;;;;;8.37;7.57;;;16.10;99.90;;;18.41;64.43;94668.84;5084394;28;20187;-74
2021/06/12 05:34:26;;;;;;;7.60;6.90;;;17.10;99.90;;;19.00;64.58;94648.50;5083904;28;20201;-74
2021/06/12 05:36:53;;;;;;;7.37;6.77;;;17.90;99.90;;;19.17;64.50;94640.66;5084049;28;20214;-73
2021/06/12 05:39:19;;;;;;;7.33;6.73;;;18.20;99.90;;;19.31;64.81;94639.53;5066258;28;20193;-73
2021/06/12 05:41:48;;;;;;;7.10;6.50;;;18.50;99.90;;;19.75;64.53;94660.41;5084797;28;20189;-73
2021/06/12 05:44:14;;;;;;;7.57;6.93;;;18.90;99.90;;;20.76;64.29;94676.06;5086472;28;20203;-72
2021/06/12 05:46:40;;;;;;;6.97;5.90;;;19.80;99.90;;;21.84;64.05;94689.81;5083688;28;20239;-73
2021/06/12 05:49:06;;;;;;;6.30;5.70;;;21.00;99.90;;;22.99;64.13;94682.66;5084460;28;20183;-73
2021/06/12 05:51:32;;;;;;;6.27;5.60;;;22.30;99.90;;;24.31;63.56;94694.88;5082044;28;20514;-73
2021/06/12 05:53:58;;;;;;;6.00;5.50;;;23.70;99.90;;;24.99;63.54;94644.63;5084903;28;20197;-74
2021/06/12 05:56:24;;;;;;;5.90;5.40;;;24.70;99.90;;;26.08;63.01;94698.19;5063795;28;20195;-74
2021/06/12 05:58:50;;;;;;;5.27;4.80;;;25.90;99.90;;;26.00;63.01;94651.00;5068164;28;20271;-74
2021/06/12 06:01:20;;;;;;;5.50;5.00;;;26.50;99.90;;;26.97;62.61;94671.63;5063970;28;20205;-73
2021/06/12 06:03:51;;;;;;;5.17;4.70;;;27.20;99.90;;;27.71;61.94;94686.38;5062229;28;20205;-74
2021/06/12 06:06:17;;;;;;;5.07;4.20;;;28.10;99.90;;;27.81;61.77;94618.50;5070344;28;20233;-72
2021/06/12 06:08:42;;;;;;;4.50;4.10;;;28.20;99.70;;;28.08;61.66;94659.59;5087545;28;20281;-74
2021/06/12 06:11:09;;;;;;;6.00;4.47;;;28.40;99.00;;;28.12;61.34;94628.56;5086666;28;20218;-74
2021/06/12 06:13:43;;;;;;;6.87;4.50;;;28.60;98.40;;;28.40;61.12;94700.06;5071941;28;20198;-74
2021/06/12 06:16:10;;;;;;;6.90;4.43;;;29.10;97.70;;;29.08;60.21;94690.53;5071997;28;20193;-73
2021/06/12 06:18:37;;;;;;;4.67;4.20;;;29.60;95.40;;;29.93;60.14;94677.19;5088068;28;20187;-73
2021/06/12 06:21:05;;;;;;;4.63;4.07;;;30.60;94.00;;;30.33;59.35;94654.72;5063758;28;20856;-74
2021/06/12 06:23:31;;;;;;;5.00;4.07;;;31.30;90.70;;;30.48;59.23;94678.41;5070787;28;20277;-74
2021/06/12 06:26:00;;;;;;;4.27;3.70;;;31.60;89.50;;;31.24;58.55;94689.06;5071640;28;20263;-74
2021/06/12 06:28:26;;;;;;;5.93;4.63;;;32.40;86.80;;;31.76;57.95;94677.06;5069355;28;20579;-74
2021/06/12 06:30:52;;;;;;;4.23;3.83;;;33.80;88.60;;;32.27;57.48;94646.88;5085491;28;20736;-75
2021/06/12 06:33:21;;;;;;;4.30;4.00;;;33.60;77.50;;;32.17;57.48;94675.81;5066934;28;20277;-76
2021/06/12 06:35:47;;;;;;;4.35;3.90;;;33.90;76.40;;;32.50;56.59;94722.28;5086562;28;20210;-74
2021/06/12 06:38:13;;;;;;;4.10;3.80;;;34.30;76.80;;;33.16;56.28;94681.00;5065393;28;20957;-74
2021/06/12 06:40:39;;;;;;;4.07;3.75;;;34.90;73.10;;;33.72;55.71;94697.63;5088657;28;20205;-73
2021/06/12 06:43:05;;;;;;;3.70;3.50;;;35.50;71.80;;;34.41;55.02;94684.25;5083830;28;20202;-73
2021/06/12 06:45:31;;;;;;;4.03;3.60;;;36.10;69.80;;;34.80;54.66;94675.88;5054057;28;20194;-73
2021/06/12 06:47:59;;;;;;;5.97;3.88;;;36.40;67.40;;;34.24;54.08;94645.72;5088739;28;20275;-73
2021/06/12 06:50:25;;;;;;;4.70;4.00;;;36.00;67.00;;;34.13;53.73;94666.97;5069644;28;20297;-74
2021/06/12 06:52:54;;;;;;;3.90;3.60;;;35.60;68.10;;;33.86;53.05;94672.09;5036665;28;20279;-73
2021/06/12 06:55:21;;;;;;;3.80;3.60;;;35.20;68.20;;;33.83;53.03;94662.66;5065952;28;20689;-73
2021/06/12 06:57:48;;;;;;;4.10;3.80;;;34.90;68.50;;;33.72;52.89;94650.06;5085213;28;20187;-73
2021/06/12 07:00:18;;;;;;;4.95;4.05;;;34.60;68.30;;;32.46;52.39;94575.19;5087699;28;20198;-73
2021/06/12 07:02:44;;;;;;;4.35;3.97;;;33.80;69.70;;;32.11;51.58;94633.44;5085382;28;20218;-73
2021/06/12 07:05:10;;;;;;;4.03;3.63;;;33.10;71.70;;;31.41;51.60;94639.13;5082431;28;20237;-73
2021/06/12 07:07:38;;;;;;;3.90;3.60;;;32.30;74.30;;;30.69;51.60;94664.19;5071472;28;20289;-73
2021/06/12 07:10:05;;;;;;;4.23;3.83;;;31.70;75.10;;;30.22;51.35;94640.09;5070652;28;20222;-74
2021/06/12 07:12:31;;;;;;;4.20;3.90;;;31.00;75.30;;;29.60;50.91;94648.91;5088279;28;20339;-72
2021/06/12 07:14:57;;;;;;;4.80;4.30;;;30.20;78.00;;;29.20;50.49;94652.13;5069521;28;20269;-74
2021/06/12 07:17:23;;;;;;;5.00;4.20;;;29.60;79.40;;;28.75;50.29;94671.94;5087079;28;20210;-74
2021/06/12 07:19:49;;;;;;;4.90;4.60;;;29.00;81.10;;;28.50;50.34;94685.88;5084509;28;20197;-73
2021/06/12 07:22:17;;;;;;;5.43;4.47;;;28.60;82.20;;;28.19;49.92;94688.69;5102937;27;20202;-71
2021/06/12 07:24:43;;;;;;;4.60;4.30;;;28.10;85.00;;;28.47;50.20;94680.34;5085758;28;20195;-75
2021/06/12 07:27:09;;;;;;;5.00;4.50;;;28.20;89.40;;;29.32;49.73;94718.31;5084090;28;20191;-75
2021/06/12 07:29:36;;;;;;;4.63;4.20;;;28.90;84.30;;;29.83;49.72;94726.22;5079298;28;20272;-74
2021/06/12 07:32:04;;;;;;;4.33;4.03;;;29.60;82.70;;;30.81;49.40;94734.34;5087165;28;20187;-75
2021/06/12 07:34:30;;;;;;;4.30;4.00;;;30.80;79.10;;;31.29;48.95;94696.97;5086168;28;20194;-75
2021/06/12 07:36:58;;;;;;;4.10;3.80;;;31.40;74.40;;;31.89;48.77;94735.94;5070212;28;20734;-75
2021/06/12 07:39:27;;;;;;;4.20;3.80;;;32.40;73.30;;;32.24;48.37;94694.25;5051440;28;20206;-75
2021/06/12 07:41:54;;;;;;;4.97;3.73;;;33.30;69.50;;;33.50;48.17;94735.31;5082313;28;20198;-74
2021/06/12 07:44:20;;;;;;;3.93;3.63;;;34.60;67.30;;;33.94;48.10;94696.47;5083514;28;20277;-76
2021/06/12 07:46:47;;;;;;;3.65;3.35;;;35.40;64.60;;;34.22;47.69;94689.38;5099244;28;20198;-74
2021/06/12 07:49:13;;;;;;;3.72;3.42;;;36.10;65.50;;;34.90;47.16;94705.34;5065730;28;20197;-75
2021/06/12 07:51:43;;;;;;;4.18;3.55;;;36.70;63.10;;;35.78;46.49;94714.38;5058504;28;20622;-76
2021/06/12 07:54:12;;;;;;;4.15;3.67;;;37.80;61.10;;;36.68;46.03;94705.72;5068510;28;20544;-74
2021/06/12 07:56:38;;;;;;;3.38;3.17;;;38.90;59.10;;;37.74;45.43;94715.44;5063139;28;20217;-75
2021/06/12 07:59:04;;;;;;;4.00;3.70;;;40.00;57.10;;;37.92;45.34;94666.16;5082691;28;20186;-75
2021/06/12 08:01:30;;;;;;;4.63;3.67;;;40.60;56.70;;;37.89;44.92;94663.41;5081406;28;20189;-75
2021/06/12 08:03:58;;;;;;;4.80;3.90;;;40.80;55.90;;;38.13;44.35;94706.56;5082739;28;20250;-74
2021/06/12 08:06:24;;;;;;;4.30;3.50;;;41.20;55.10;;;37.57;44.25;94654.84;5087898;28;20178;-75
2021/06/12 08:08:52;;;;;;;4.20;3.88;;;40.70;54.80;;;37.74;43.80;94704.38;5081776;28;20712;-75
2021/06/12 08:11:19;;;;;;;4.30;3.97;;;40.50;55.50;;;37.46;43.52;94649.44;5084121;28;20231;-75
2021/06/12 08:13:47;;;;;;;4.63;4.07;;;40.40;55.60;;;38.03;43.43;94749.06;5062052;28;20190;-74
2021/06/12 08:16:16;;;;;;;3.80;3.47;;;40.50;55.10;;;37.93;42.62;94640.03;5083898;28;20660;-74
2021/06/12 08:18:41;;;;;;;4.35;3.80;;;40.70;53.90;;;38.44;41.94;94699.72;5066142;28;20182;-75
2021/06/12 08:21:08;;;;;;;4.20;3.90;;;41.10;53.30;;;39.21;42.30;94710.50;5083556;28;20201;-75
2021/06/12 08:23:36;;;;;;;3.85;3.55;;;42.20;52.00;;;39.38;41.47;94648.31;5049966;28;20190;-75
2021/06/12 08:26:03;;;;;;;4.32;3.85;;;42.50;51.90;;;39.00;41.52;94655.47;5051913;28;20186;-75
2021/06/12 08:28:29;;;;;;;3.83;3.53;;;42.00;51.90;;;39.55;40.60;94701.09;5083169;28;20191;-77
2021/06/12 08:30:56;;;;;;;4.03;3.72;;;42.60;52.10;;;39.85;40.27;94671.03;5082791;28;20222;-73
2021/06/12 08:33:22;;;;;;;3.97;3.67;;;43.00;50.60;;;40.36;40.17;94674.16;5080664;28;20545;-76
2021/06/12 08:35:48;;;;;;;3.92;3.65;;;43.80;50.00;;;40.02;39.47;94619.03;5066303;28;20328;-74
2021/06/12 08:38:14;;;;;;;4.03;3.83;;;43.30;51.00;;;38.97;39.22;94593.31;5048728;28;20300;-77
2021/06/12 08:40:43;;;;;;;5.15;3.80;;;42.30;50.50;;;38.07;39.12;94633.47;5079199;28;20277;-75
2021/06/12 08:43:11;;;;;;;3.92;3.58;;;41.50;51.50;;;38.11;38.75;94669.41;5081951;28;20198;-74
2021/06/12 08:45:40;;;;;;;3.70;3.40;;;41.20;52.20;;;38.47;38.51;94698.88;5082141;28;20277;-75
2021/06/12 08:48:09;;;;;;;3.85;3.58;;;41.30;53.50;;;38.53;38.27;94645.69;5095764;28;20190;-74
2021/06/12 08:50:35;;;;;;;3.70;3.50;;;41.60;52.10;;;38.42;37.67;94638.38;5083088;28;20225;-76
2021/06/12 08:53:01;;;;;;;3.92;3.72;;;41.60;51.30;;;37.28;38.17;94651.66;5081173;28;20236;-75
2021/06/12 08:55:30;;;;;;;3.83;3.50;;;40.40;52.50;;;37.55;37.85;94726.41;5080959;28;20217;-74
2021/06/12 08:57:56;;;;;;;4.20;3.90;;;40.30;53.30;;;38.94;36.99;94751.50;5079249;28;20205;-73
2021/06/12 09:00:22;;;;;;;4.60;3.90;;;41.80;52.60;;;40.37;36.71;94707.06;5061076;28;20225;-75
2021/06/12 09:03:03;;;;;;;3.67;3.33;;;43.40;49.80;;;40.51;36.80;94686.47;5064618;28;20271;-76
2021/06/12 09:05:56;;;;;;;4.50;3.40;;;44.00;48.90;;;41.13;36.33;94695.53;5081388;28;20183;-76
2021/06/12 09:08:26;;;;;;;3.78;3.47;;;45.10;48.80;;;42.00;35.83;94705.25;5083336;28;20228;-75
2021/06/12 09:11:06;;;;;;;3.75;3.55;;;46.20;47.10;;;42.05;35.64;94637.78;5061351;28;20278;-75
2021/06/12 09:14:03;;;;;;;3.67;3.38;;;46.10;45.10;;;42.05;35.24;94726.97;5081089;28;20182;-76
2021/06/12 09:16:47;;;;;;;4.28;3.70;;;45.80;46.20;;;41.53;34.88;94712.69;5080685;28;20195;-75
2021/06/12 09:19:23;;;;;;;4.22;3.92;;;45.00;46.80;;;40.84;34.58;94653.78;5080622;28;20174;-75
2021/06/12 09:22:00;;;;;;;3.75;3.55;;;44.50;46.30;;;40.51;34.17;94730.16;5081696;28;20190;-74
2021/06/12 09:24:31;;;;;;;4.22;3.92;;;43.70;48.60;;;39.87;33.92;94620.59;5067129;28;20186;-76
2021/06/12 09:27:00;;;;;;;4.00;3.70;;;43.40;48.30;;;39.99;33.74;94656.03;5067177;28;20281;-74
2021/06/12 09:29:36;;;;;;;4.70;4.30;;;42.90;49.60;;;39.61;33.50;94766.00;5078079;28;20202;-78
2021/06/12 09:32:23;;;;;;;4.80;4.50;;;42.60;49.10;;;39.96;33.39;94732.66;5080025;28;20205;-74
2021/06/12 09:34:57;;;;;;;5.40;4.95;;;42.40;49.10;;;39.34;33.25;94702.34;5065186;28;20182;-74
2021/06/12 09:37:29;;;;;;;4.60;4.30;;;41.80;50.90;;;40.12;33.41;94670.03;5059965;28;20540;-76
2021/06/12 09:40:06;;;;;;;5.53;5.03;;;42.10;51.80;;;40.52;32.97;94779.00;5067999;28;20244;-73
2021/06/12 09:42:55;;;;;;;5.60;5.20;;;43.00;51.20;;;40.77;32.97;94745.78;5083685;28;20591;-75
2021/06/12 09:45:34;;;;;;;5.63;5.22;;;43.30;49.80;;;39.93;32.88;94671.63;5067178;28;20281;-75
2021/06/12 09:48:18;;;;;;;5.35;5.05;;;42.70;49.70;;;40.20;32.13;94763.09;5086093;28;20237;-74
2021/06/12 09:50:47;;;;;;;5.80;5.30;;;43.00;52.10;;;40.55;32.22;94714.19;5085132;28;20247;-74
2021/06/12 09:53:37;;;;;;;5.53;5.07;;;43.50;50.70;;;40.30;32.07;94723.16;5064740;28;20195;-74
2021/06/12 09:56:12;;;;;;;5.93;5.43;;;43.60;50.30;;;40.77;31.64;94679.03;5071512;28;20255;-74
2021/06/12 09:58:38;;;;;;;8.00;4.85;;;44.00;50.20;;;41.04;31.93;94673.13;5086815;28;20193;-73
2021/06/12 10:01:10;;;;;;;5.30;4.70;;;44.40;49.90;;;41.65;31.51;94767.59;5085596;28;20210;-74
2021/06/12 10:03:36;;;;;;;5.47;4.90;;;45.10;50.30;;;42.22;31.34;94666.31;5067520;28;20281;-73
2021/06/12 10:06:23;;;;;;;5.55;5.05;;;45.90;48.40;;;42.24;31.15;94645.13;5080144;28;20193;-73
2021/06/12 10:08:54;;;;;;;5.85;5.45;;;45.90;47.00;;;41.92;31.25;94631.44;5085908;28;20631;-74
2021/06/12 10:11:30;;;;;;;5.50;5.20;;;46.00;47.00;;;41.97;30.77;94766.69;5071217;28;20728;-73
2021/06/12 10:13:57;;;;;;;5.97;5.47;;;45.40;47.30;;;41.61;30.89;94602.59;5085563;28;20190;-74
2021/06/12 10:16:28;;;;;;;5.75;5.28;;;44.80;48.60;;;41.60;30.46;94645.63;5084788;28;20206;-74
2021/06/12 10:18:56;;;;;;;5.68;5.28;;;44.50;48.70;;;41.37;30.27;94669.00;5084528;28;20204;-74
2021/06/12 10:21:24;;;;;;;5.63;5.20;;;44.20;49.40;;;42.21;29.95;94720.53;5081500;28;20267;-76
2021/06/12 10:23:51;;;;;;;5.80;5.40;;;45.50;49.70;;;41.66;30.15;94650.19;5085522;28;20316;-74